sensor_id;sensor_type;location;lat;lon;timestamp;P1;durP1;ratioP1;P2;durP2;ratioP2
12950;SDS011;6540;50.858;7.232;2023-02-02T00:01:51;14.23;;;4.03;;
12950;SDS011;6540;50.858;7.232;2023-02-02T00:04:22;13.00;;;4.00;;
12950;SDS011;6540;50.858;7.232;2023-02-02T00:06:49;8.87;;;3.50;;
12950;SDS011;6540;50.858;7.232;2023-02-02T00:09:16;9.90;;;3.90;;
12950;SDS011;6540;50.858;7.232;2023-02-02T00:11:43;11.33;;;4.10;;
12950;SDS011;6540;50.858;7.232;2023-02-02T00:14:10;12.13;;;4.10;;
12950;SDS011;6540;50.858;7.232;2023-02-02T00:16:37;9.10;;;3.97;;
12950;SDS011;6540;50.858;7.232;2023-02-02T00:19:19;12.90;;;4.50;;
12950;SDS011;6540;50.858;7.232;2023-02-02T00:21:46;10.67;;;3.87;;
12950;SDS011;6540;50.858;7.232;2023-02-02T00:24:13;11.40;;;3.70;;
12950;SDS011;6540;50.858;7.232;2023-02-02T00:26:42;10.37;;;3.80;;
12950;SDS011;6540;50.858;7.232;2023-02-02T00:29:12;12.40;;;3.83;;
12950;SDS011;6540;50.858;7.232;2023-02-02T00:31:39;16.43;;;4.23;;
12950;SDS011;6540;50.858;7.232;2023-02-02T00:34:05;18.50;;;3.73;;
12950;SDS011;6540;50.858;7.232;2023-02-02T00:36:30;13.50;;;3.67;;
12950;SDS011;6540;50.858;7.232;2023-02-02T00:38:55;9.83;;;3.73;;
12950;SDS011;6540;50.858;7.232;2023-02-02T00:41:21;15.17;;;4.33;;
12950;SDS011;6540;50.858;7.232;2023-02-02T00:43:46;8.60;;;4.10;;
12950;SDS011;6540;50.858;7.232;2023-02-02T00:46:31;8.60;;;4.10;;
12950;SDS011;6540;50.858;7.232;2023-02-02T00:48:57;9.07;;;3.93;;
12950;SDS011;6540;50.858;7.232;2023-02-02T00:51:22;9.97;;;4.23;;
12950;SDS011;6540;50.858;7.232;2023-02-02T00:53:47;7.27;;;3.13;;
12950;SDS011;6540;50.858;7.232;2023-02-02T00:56:13;13.20;;;4.93;;
12950;SDS011;6540;50.858;7.232;2023-02-02T00:58:38;5.77;;;3.20;;
12950;SDS011;6540;50.858;7.232;2023-02-02T01:01:03;15.77;;;4.73;;
12950;SDS011;6540;50.858;7.232;2023-02-02T01:03:29;8.50;;;4.40;;
12950;SDS011;6540;50.858;7.232;2023-02-02T01:05:54;5.93;;;3.10;;
12950;SDS011;6540;50.858;7.232;2023-02-02T01:08:19;14.57;;;4.43;;
12950;SDS011;6540;50.858;7.232;2023-02-02T01:10:45;9.03;;;3.60;;
12950;SDS011;6540;50.858;7.232;2023-02-02T01:13:10;12.43;;;4.10;;
12950;SDS011;6540;50.858;7.232;2023-02-02T01:15:35;6.67;;;3.73;;
12950;SDS011;6540;50.858;7.232;2023-02-02T01:18:01;7.27;;;3.40;;
12950;SDS011;6540;50.858;7.232;2023-02-02T01:20:26;8.70;;;3.23;;
12950;SDS011;6540;50.858;7.232;2023-02-02T01:22:51;11.73;;;4.33;;
12950;SDS011;6540;50.858;7.232;2023-02-02T01:25:17;7.50;;;3.93;;
12950;SDS011;6540;50.858;7.232;2023-02-02T01:27:43;11.90;;;4.10;;
12950;SDS011;6540;50.858;7.232;2023-02-02T01:30:08;11.33;;;3.43;;
12950;SDS011;6540;50.858;7.232;2023-02-02T01:32:34;11.77;;;4.20;;
12950;SDS011;6540;50.858;7.232;2023-02-02T01:34:59;15.30;;;4.10;;
12950;SDS011;6540;50.858;7.232;2023-02-02T01:37:25;11.97;;;3.70;;
12950;SDS011;6540;50.858;7.232;2023-02-02T01:39:50;11.73;;;4.07;;
12950;SDS011;6540;50.858;7.232;2023-02-02T01:42:19;17.73;;;4.60;;
12950;SDS011;6540;50.858;7.232;2023-02-02T01:47:17;10.80;;;3.60;;
12950;SDS011;6540;50.858;7.232;2023-02-02T01:49:44;6.33;;;3.40;;
12950;SDS011;6540;50.858;7.232;2023-02-02T01:52:12;15.30;;;5.03;;
12950;SDS011;6540;50.858;7.232;2023-02-02T01:54:46;8.73;;;3.83;;
12950;SDS011;6540;50.858;7.232;2023-02-02T01:59:53;10.70;;;4.67;;
12950;SDS011;6540;50.858;7.232;2023-02-02T02:02:20;13.03;;;4.43;;
12950;SDS011;6540;50.858;7.232;2023-02-02T02:04:46;13.40;;;4.53;;
12950;SDS011;6540;50.858;7.232;2023-02-02T02:07:14;7.33;;;4.43;;
12950;SDS011;6540;50.858;7.232;2023-02-02T02:09:39;9.97;;;5.20;;
12950;SDS011;6540;50.858;7.232;2023-02-02T02:12:14;10.83;;;5.03;;
12950;SDS011;6540;50.858;7.232;2023-02-02T02:14:40;9.80;;;5.23;;
12950;SDS011;6540;50.858;7.232;2023-02-02T02:29:25;9.73;;;4.10;;
12950;SDS011;6540;50.858;7.232;2023-02-02T02:32:24;14.17;;;4.87;;
12950;SDS011;6540;50.858;7.232;2023-02-02T02:37:46;12.27;;;4.93;;
12950;SDS011;6540;50.858;7.232;2023-02-02T02:40:24;18.07;;;5.23;;
12950;SDS011;6540;50.858;7.232;2023-02-02T02:42:56;19.50;;;5.00;;
12950;SDS011;6540;50.858;7.232;2023-02-02T02:45:25;14.13;;;5.10;;
12950;SDS011;6540;50.858;7.232;2023-02-02T02:47:52;17.53;;;5.00;;
12950;SDS011;6540;50.858;7.232;2023-02-02T02:50:19;13.13;;;5.47;;
12950;SDS011;6540;50.858;7.232;2023-02-02T02:52:44;12.27;;;4.37;;
12950;SDS011;6540;50.858;7.232;2023-02-02T02:55:11;10.43;;;5.13;;
12950;SDS011;6540;50.858;7.232;2023-02-02T03:05:53;20.40;;;6.27;;
12950;SDS011;6540;50.858;7.232;2023-02-02T03:08:31;13.90;;;4.90;;
12950;SDS011;6540;50.858;7.232;2023-02-02T03:11:08;15.10;;;4.93;;
12950;SDS011;6540;50.858;7.232;2023-02-02T03:13:37;11.83;;;5.07;;
12950;SDS011;6540;50.858;7.232;2023-02-02T03:16:04;15.03;;;5.37;;
12950;SDS011;6540;50.858;7.232;2023-02-02T03:18:30;15.10;;;5.93;;
12950;SDS011;6540;50.858;7.232;2023-02-02T03:20:57;8.77;;;4.93;;
12950;SDS011;6540;50.858;7.232;2023-02-02T03:23:22;13.23;;;5.00;;
12950;SDS011;6540;50.858;7.232;2023-02-02T03:25:48;12.67;;;5.17;;
12950;SDS011;6540;50.858;7.232;2023-02-02T03:28:14;9.30;;;4.73;;
12950;SDS011;6540;50.858;7.232;2023-02-02T03:30:41;13.00;;;4.30;;
12950;SDS011;6540;50.858;7.232;2023-02-02T03:33:08;14.40;;;5.63;;
12950;SDS011;6540;50.858;7.232;2023-02-02T03:35:34;14.07;;;5.67;;
12950;SDS011;6540;50.858;7.232;2023-02-02T03:38:00;18.57;;;6.33;;
12950;SDS011;6540;50.858;7.232;2023-02-02T03:40:26;19.07;;;5.97;;
12950;SDS011;6540;50.858;7.232;2023-02-02T03:42:52;10.37;;;5.57;;
12950;SDS011;6540;50.858;7.232;2023-02-02T03:45:18;15.40;;;5.00;;
12950;SDS011;6540;50.858;7.232;2023-02-02T03:47:43;12.80;;;5.93;;
12950;SDS011;6540;50.858;7.232;2023-02-02T03:50:08;15.83;;;5.40;;
12950;SDS011;6540;50.858;7.232;2023-02-02T03:52:34;16.77;;;6.10;;
12950;SDS011;6540;50.858;7.232;2023-02-02T03:55:00;15.63;;;6.33;;
12950;SDS011;6540;50.858;7.232;2023-02-02T03:57:25;16.50;;;6.07;;
12950;SDS011;6540;50.858;7.232;2023-02-02T03:59:50;14.43;;;5.43;;
12950;SDS011;6540;50.858;7.232;2023-02-02T04:02:16;18.17;;;5.77;;
12950;SDS011;6540;50.858;7.232;2023-02-02T04:04:41;14.17;;;5.53;;
12950;SDS011;6540;50.858;7.232;2023-02-02T04:07:06;16.60;;;5.60;;
12950;SDS011;6540;50.858;7.232;2023-02-02T04:09:32;10.20;;;5.53;;
12950;SDS011;6540;50.858;7.232;2023-02-02T04:11:57;15.40;;;6.77;;
12950;SDS011;6540;50.858;7.232;2023-02-02T04:14:22;11.60;;;5.83;;
12950;SDS011;6540;50.858;7.232;2023-02-02T04:16:48;12.60;;;5.77;;
12950;SDS011;6540;50.858;7.232;2023-02-02T04:19:13;9.47;;;5.47;;
12950;SDS011;6540;50.858;7.232;2023-02-02T04:21:39;16.77;;;5.80;;
12950;SDS011;6540;50.858;7.232;2023-02-02T04:24:14;12.87;;;5.37;;
12950;SDS011;6540;50.858;7.232;2023-02-02T04:26:40;17.77;;;5.90;;
12950;SDS011;6540;50.858;7.232;2023-02-02T04:29:05;13.53;;;6.27;;
12950;SDS011;6540;50.858;7.232;2023-02-02T04:31:31;20.97;;;6.13;;
12950;SDS011;6540;50.858;7.232;2023-02-02T04:33:57;18.33;;;6.67;;
12950;SDS011;6540;50.858;7.232;2023-02-02T04:36:23;11.20;;;6.97;;
12950;SDS011;6540;50.858;7.232;2023-02-02T04:38:49;17.83;;;7.20;;
12950;SDS011;6540;50.858;7.232;2023-02-02T04:41:15;9.47;;;5.90;;
12950;SDS011;6540;50.858;7.232;2023-02-02T04:43:42;19.37;;;7.10;;
12950;SDS011;6540;50.858;7.232;2023-02-02T04:46:08;17.07;;;6.57;;
12950;SDS011;6540;50.858;7.232;2023-02-02T04:48:33;13.43;;;6.67;;
12950;SDS011;6540;50.858;7.232;2023-02-02T04:50:59;13.83;;;6.80;;
12950;SDS011;6540;50.858;7.232;2023-02-02T04:53:26;18.00;;;6.53;;
12950;SDS011;6540;50.858;7.232;2023-02-02T04:55:53;17.40;;;6.60;;
12950;SDS011;6540;50.858;7.232;2023-02-02T04:58:18;19.93;;;7.97;;
12950;SDS011;6540;50.858;7.232;2023-02-02T05:00:43;19.50;;;7.70;;
12950;SDS011;6540;50.858;7.232;2023-02-02T05:03:09;18.47;;;7.47;;
12950;SDS011;6540;50.858;7.232;2023-02-02T05:05:34;17.03;;;6.37;;
12950;SDS011;6540;50.858;7.232;2023-02-02T05:08:00;16.87;;;7.00;;
12950;SDS011;6540;50.858;7.232;2023-02-02T05:10:25;16.93;;;6.67;;
12950;SDS011;6540;50.858;7.232;2023-02-02T05:12:51;16.50;;;7.57;;
12950;SDS011;6540;50.858;7.232;2023-02-02T05:15:17;11.20;;;5.60;;
12950;SDS011;6540;50.858;7.232;2023-02-02T05:17:45;16.60;;;6.00;;
12950;SDS011;6540;50.858;7.232;2023-02-02T05:20:10;14.83;;;6.77;;
12950;SDS011;6540;50.858;7.232;2023-02-02T05:22:36;14.83;;;5.40;;
12950;SDS011;6540;50.858;7.232;2023-02-02T05:25:03;13.77;;;7.17;;
12950;SDS011;6540;50.858;7.232;2023-02-02T05:27:30;11.40;;;6.03;;
12950;SDS011;6540;50.858;7.232;2023-02-02T05:30:10;14.90;;;7.20;;
12950;SDS011;6540;50.858;7.232;2023-02-02T05:32:39;15.90;;;6.50;;
12950;SDS011;6540;50.858;7.232;2023-02-02T05:35:07;18.70;;;7.00;;
12950;SDS011;6540;50.858;7.232;2023-02-02T05:37:33;18.27;;;6.87;;
12950;SDS011;6540;50.858;7.232;2023-02-02T05:39:58;13.63;;;6.77;;
12950;SDS011;6540;50.858;7.232;2023-02-02T05:42:24;18.67;;;6.83;;
12950;SDS011;6540;50.858;7.232;2023-02-02T05:44:52;16.33;;;7.43;;
12950;SDS011;6540;50.858;7.232;2023-02-02T05:47:23;12.87;;;6.77;;
12950;SDS011;6540;50.858;7.232;2023-02-02T05:49:48;15.43;;;6.90;;
12950;SDS011;6540;50.858;7.232;2023-02-02T05:52:15;18.23;;;7.00;;
12950;SDS011;6540;50.858;7.232;2023-02-02T05:54:43;19.47;;;7.10;;
12950;SDS011;6540;50.858;7.232;2023-02-02T05:57:09;22.90;;;7.17;;
12950;SDS011;6540;50.858;7.232;2023-02-02T05:59:34;22.30;;;8.17;;
12950;SDS011;6540;50.858;7.232;2023-02-02T06:01:59;17.87;;;7.27;;
12950;SDS011;6540;50.858;7.232;2023-02-02T06:04:25;11.27;;;6.30;;
12950;SDS011;6540;50.858;7.232;2023-02-02T06:06:50;13.60;;;7.23;;
12950;SDS011;6540;50.858;7.232;2023-02-02T06:09:16;15.90;;;9.23;;
12950;SDS011;6540;50.858;7.232;2023-02-02T06:11:44;17.27;;;7.70;;
12950;SDS011;6540;50.858;7.232;2023-02-02T06:14:14;15.60;;;7.37;;
12950;SDS011;6540;50.858;7.232;2023-02-02T06:16:42;15.27;;;7.63;;
12950;SDS011;6540;50.858;7.232;2023-02-02T06:19:08;12.57;;;6.53;;
12950;SDS011;6540;50.858;7.232;2023-02-02T06:21:33;20.60;;;8.17;;
12950;SDS011;6540;50.858;7.232;2023-02-02T06:23:58;17.17;;;7.80;;
12950;SDS011;6540;50.858;7.232;2023-02-02T06:26:24;13.50;;;8.40;;
12950;SDS011;6540;50.858;7.232;2023-02-02T06:28:53;23.27;;;8.70;;
12950;SDS011;6540;50.858;7.232;2023-02-02T06:31:19;13.47;;;6.50;;
12950;SDS011;6540;50.858;7.232;2023-02-02T06:33:46;15.10;;;7.57;;
12950;SDS011;6540;50.858;7.232;2023-02-02T06:36:12;13.53;;;6.73;;
12950;SDS011;6540;50.858;7.232;2023-02-02T06:38:40;18.93;;;7.97;;
12950;SDS011;6540;50.858;7.232;2023-02-02T06:41:06;16.87;;;7.60;;
12950;SDS011;6540;50.858;7.232;2023-02-02T06:43:31;13.20;;;7.20;;
12950;SDS011;6540;50.858;7.232;2023-02-02T06:45:57;13.37;;;8.77;;
12950;SDS011;6540;50.858;7.232;2023-02-02T06:48:22;12.53;;;7.83;;
12950;SDS011;6540;50.858;7.232;2023-02-02T06:50:48;19.50;;;7.47;;
12950;SDS011;6540;50.858;7.232;2023-02-02T06:53:13;12.93;;;6.93;;
12950;SDS011;6540;50.858;7.232;2023-02-02T06:55:39;13.10;;;6.70;;
12950;SDS011;6540;50.858;7.232;2023-02-02T06:58:05;12.63;;;6.30;;
12950;SDS011;6540;50.858;7.232;2023-02-02T07:00:30;13.43;;;6.73;;
12950;SDS011;6540;50.858;7.232;2023-02-02T07:02:56;8.53;;;5.60;;
12950;SDS011;6540;50.858;7.232;2023-02-02T07:05:21;11.80;;;6.43;;
12950;SDS011;6540;50.858;7.232;2023-02-02T07:07:50;14.63;;;7.00;;
12950;SDS011;6540;50.858;7.232;2023-02-02T07:10:16;13.80;;;6.13;;
12950;SDS011;6540;50.858;7.232;2023-02-02T07:12:42;11.33;;;6.03;;
12950;SDS011;6540;50.858;7.232;2023-02-02T07:15:08;15.93;;;6.20;;
12950;SDS011;6540;50.858;7.232;2023-02-02T07:17:34;13.03;;;6.30;;
12950;SDS011;6540;50.858;7.232;2023-02-02T07:19:59;17.50;;;6.43;;
12950;SDS011;6540;50.858;7.232;2023-02-02T07:22:24;7.40;;;5.37;;
12950;SDS011;6540;50.858;7.232;2023-02-02T07:24:50;9.83;;;6.47;;
12950;SDS011;6540;50.858;7.232;2023-02-02T07:27:15;14.97;;;6.37;;
12950;SDS011;6540;50.858;7.232;2023-02-02T07:29:40;15.13;;;6.47;;
12950;SDS011;6540;50.858;7.232;2023-02-02T07:32:06;13.90;;;6.23;;
12950;SDS011;6540;50.858;7.232;2023-02-02T07:34:31;8.77;;;5.87;;
12950;SDS011;6540;50.858;7.232;2023-02-02T07:36:57;13.77;;;5.47;;
12950;SDS011;6540;50.858;7.232;2023-02-02T07:39:22;12.83;;;5.77;;
12950;SDS011;6540;50.858;7.232;2023-02-02T07:41:48;10.37;;;6.10;;
12950;SDS011;6540;50.858;7.232;2023-02-02T07:44:14;14.77;;;6.00;;
12950;SDS011;6540;50.858;7.232;2023-02-02T07:46:40;14.57;;;6.83;;
12950;SDS011;6540;50.858;7.232;2023-02-02T07:49:06;10.53;;;5.47;;
12950;SDS011;6540;50.858;7.232;2023-02-02T07:51:32;11.53;;;6.33;;
12950;SDS011;6540;50.858;7.232;2023-02-02T07:53:57;13.97;;;6.53;;
12950;SDS011;6540;50.858;7.232;2023-02-02T07:56:24;13.57;;;6.53;;
12950;SDS011;6540;50.858;7.232;2023-02-02T07:58:52;13.53;;;6.23;;
12950;SDS011;6540;50.858;7.232;2023-02-02T08:01:19;10.33;;;5.83;;
12950;SDS011;6540;50.858;7.232;2023-02-02T08:03:46;14.00;;;6.70;;
12950;SDS011;6540;50.858;7.232;2023-02-02T08:06:14;15.20;;;6.57;;
12950;SDS011;6540;50.858;7.232;2023-02-02T08:08:43;9.87;;;6.67;;
12950;SDS011;6540;50.858;7.232;2023-02-02T08:11:10;12.47;;;6.07;;
12950;SDS011;6540;50.858;7.232;2023-02-02T08:13:37;13.57;;;5.60;;
12950;SDS011;6540;50.858;7.232;2023-02-02T08:16:05;13.97;;;5.90;;
12950;SDS011;6540;50.858;7.232;2023-02-02T08:18:31;11.33;;;5.53;;
12950;SDS011;6540;50.858;7.232;2023-02-02T08:20:58;13.30;;;5.73;;
12950;SDS011;6540;50.858;7.232;2023-02-02T08:23:24;13.97;;;5.50;;
12950;SDS011;6540;50.858;7.232;2023-02-02T08:25:50;16.23;;;6.27;;
12950;SDS011;6540;50.858;7.232;2023-02-02T08:28:16;11.70;;;6.50;;
12950;SDS011;6540;50.858;7.232;2023-02-02T08:30:41;17.07;;;6.30;;
12950;SDS011;6540;50.858;7.232;2023-02-02T08:33:07;12.97;;;6.10;;
12950;SDS011;6540;50.858;7.232;2023-02-02T08:35:32;15.50;;;6.67;;
12950;SDS011;6540;50.858;7.232;2023-02-02T08:37:57;9.40;;;5.73;;
12950;SDS011;6540;50.858;7.232;2023-02-02T08:40:26;14.30;;;6.17;;
12950;SDS011;6540;50.858;7.232;2023-02-02T08:42:52;10.57;;;6.53;;
12950;SDS011;6540;50.858;7.232;2023-02-02T08:45:19;14.20;;;7.13;;
12950;SDS011;6540;50.858;7.232;2023-02-02T08:47:45;16.47;;;7.30;;
12950;SDS011;6540;50.858;7.232;2023-02-02T08:50:10;13.37;;;7.40;;
12950;SDS011;6540;50.858;7.232;2023-02-02T08:52:36;11.50;;;7.20;;
12950;SDS011;6540;50.858;7.232;2023-02-02T08:55:01;14.30;;;7.17;;
12950;SDS011;6540;50.858;7.232;2023-02-02T08:57:27;13.17;;;7.17;;
12950;SDS011;6540;50.858;7.232;2023-02-02T08:59:52;12.13;;;8.07;;
12950;SDS011;6540;50.858;7.232;2023-02-02T09:02:18;12.33;;;6.73;;
12950;SDS011;6540;50.858;7.232;2023-02-02T09:04:43;9.87;;;7.27;;
12950;SDS011;6540;50.858;7.232;2023-02-02T09:07:11;11.47;;;6.63;;
12950;SDS011;6540;50.858;7.232;2023-02-02T09:09:36;14.93;;;6.70;;
12950;SDS011;6540;50.858;7.232;2023-02-02T09:12:01;14.07;;;7.60;;
12950;SDS011;6540;50.858;7.232;2023-02-02T09:14:27;9.57;;;6.23;;
12950;SDS011;6540;50.858;7.232;2023-02-02T09:16:53;12.07;;;7.83;;
12950;SDS011;6540;50.858;7.232;2023-02-02T09:19:18;21.07;;;6.67;;
12950;SDS011;6540;50.858;7.232;2023-02-02T09:21:44;15.73;;;6.53;;
12950;SDS011;6540;50.858;7.232;2023-02-02T09:24:10;10.17;;;6.70;;
12950;SDS011;6540;50.858;7.232;2023-02-02T09:26:37;16.07;;;7.47;;
12950;SDS011;6540;50.858;7.232;2023-02-02T09:29:06;12.80;;;7.10;;
12950;SDS011;6540;50.858;7.232;2023-02-02T09:31:35;11.63;;;6.83;;
12950;SDS011;6540;50.858;7.232;2023-02-02T09:34:05;16.13;;;7.00;;
12950;SDS011;6540;50.858;7.232;2023-02-02T09:36:33;18.03;;;7.40;;
12950;SDS011;6540;50.858;7.232;2023-02-02T09:38:59;10.17;;;6.30;;
12950;SDS011;6540;50.858;7.232;2023-02-02T09:52:07;16.13;;;6.43;;
12950;SDS011;6540;50.858;7.232;2023-02-02T09:55:01;16.93;;;7.60;;
12950;SDS011;6540;50.858;7.232;2023-02-02T09:57:38;13.70;;;7.40;;
12950;SDS011;6540;50.858;7.232;2023-02-02T10:06:15;11.40;;;6.23;;
12950;SDS011;6540;50.858;7.232;2023-02-02T10:08:57;8.80;;;6.90;;
12950;SDS011;6540;50.858;7.232;2023-02-02T10:11:40;12.93;;;6.73;;
12950;SDS011;6540;50.858;7.232;2023-02-02T10:14:10;11.77;;;7.07;;
12950;SDS011;6540;50.858;7.232;2023-02-02T10:16:54;10.73;;;5.80;;
12950;SDS011;6540;50.858;7.232;2023-02-02T10:19:23;7.57;;;5.23;;
12950;SDS011;6540;50.858;7.232;2023-02-02T10:24:25;8.97;;;5.67;;
12950;SDS011;6540;50.858;7.232;2023-02-02T10:26:54;15.97;;;5.83;;
12950;SDS011;6540;50.858;7.232;2023-02-02T10:32:05;9.17;;;5.80;;
12950;SDS011;6540;50.858;7.232;2023-02-02T10:45:51;8.00;;;5.80;;
12950;SDS011;6540;50.858;7.232;2023-02-02T10:48:21;6.27;;;5.67;;
12950;SDS011;6540;50.858;7.232;2023-02-02T10:50:53;11.20;;;5.70;;
12950;SDS011;6540;50.858;7.232;2023-02-02T10:53:21;8.90;;;6.60;;
12950;SDS011;6540;50.858;7.232;2023-02-02T10:55:52;10.03;;;5.50;;
12950;SDS011;6540;50.858;7.232;2023-02-02T10:58:25;10.97;;;5.97;;
12950;SDS011;6540;50.858;7.232;2023-02-02T11:00:54;14.43;;;6.67;;
12950;SDS011;6540;50.858;7.232;2023-02-02T11:03:29;12.20;;;6.07;;
12950;SDS011;6540;50.858;7.232;2023-02-02T11:05:57;9.87;;;6.60;;
12950;SDS011;6540;50.858;7.232;2023-02-02T11:08:44;12.03;;;6.60;;
12950;SDS011;6540;50.858;7.232;2023-02-02T11:11:19;8.83;;;5.23;;
12950;SDS011;6540;50.858;7.232;2023-02-02T11:16:40;8.30;;;5.77;;
12950;SDS011;6540;50.858;7.232;2023-02-02T11:21:43;11.33;;;5.87;;
12950;SDS011;6540;50.858;7.232;2023-02-02T11:29:30;15.33;;;6.60;;
12950;SDS011;6540;50.858;7.232;2023-02-02T11:31:57;11.53;;;6.43;;
12950;SDS011;6540;50.858;7.232;2023-02-02T11:34:41;8.33;;;6.13;;
12950;SDS011;6540;50.858;7.232;2023-02-02T11:37:11;7.13;;;5.80;;
12950;SDS011;6540;50.858;7.232;2023-02-02T11:39:37;12.83;;;6.10;;
12950;SDS011;6540;50.858;7.232;2023-02-02T11:42:07;11.73;;;5.77;;
12950;SDS011;6540;50.858;7.232;2023-02-02T11:44:42;9.43;;;6.13;;
12950;SDS011;6540;50.858;7.232;2023-02-02T11:47:31;10.70;;;5.60;;
12950;SDS011;6540;50.858;7.232;2023-02-02T11:49:59;11.33;;;6.33;;
12950;SDS011;6540;50.858;7.232;2023-02-02T11:52:26;8.87;;;5.37;;
12950;SDS011;6540;50.858;7.232;2023-02-02T11:54:54;9.37;;;5.97;;
12950;SDS011;6540;50.858;7.232;2023-02-02T11:57:23;8.90;;;5.57;;
12950;SDS011;6540;50.858;7.232;2023-02-02T11:59:50;8.83;;;5.37;;
12950;SDS011;6540;50.858;7.232;2023-02-02T12:02:30;9.90;;;5.67;;
12950;SDS011;6540;50.858;7.232;2023-02-02T12:07:47;7.93;;;5.50;;
12950;SDS011;6540;50.858;7.232;2023-02-02T12:26:27;15.03;;;4.93;;
12950;SDS011;6540;50.858;7.232;2023-02-02T12:31:50;10.00;;;5.33;;
12950;SDS011;6540;50.858;7.232;2023-02-02T12:39:45;11.90;;;5.00;;
12950;SDS011;6540;50.858;7.232;2023-02-02T12:56:40;7.60;;;5.07;;
12950;SDS011;6540;50.858;7.232;2023-02-02T13:05:23;6.33;;;4.30;;
12950;SDS011;6540;50.858;7.232;2023-02-02T13:08:05;8.40;;;5.33;;
12950;SDS011;6540;50.858;7.232;2023-02-02T13:10:39;9.40;;;5.23;;
12950;SDS011;6540;50.858;7.232;2023-02-02T13:13:13;7.30;;;5.07;;
12950;SDS011;6540;50.858;7.232;2023-02-02T13:15:43;4.90;;;4.40;;
12950;SDS011;6540;50.858;7.232;2023-02-02T13:18:17;8.37;;;5.27;;
12950;SDS011;6540;50.858;7.232;2023-02-02T13:20:48;10.63;;;5.20;;
12950;SDS011;6540;50.858;7.232;2023-02-02T13:23:20;7.27;;;5.47;;
12950;SDS011;6540;50.858;7.232;2023-02-02T13:26:05;10.13;;;5.33;;
12950;SDS011;6540;50.858;7.232;2023-02-02T13:28:40;12.77;;;5.70;;
12950;SDS011;6540;50.858;7.232;2023-02-02T13:31:32;5.80;;;4.23;;
12950;SDS011;6540;50.858;7.232;2023-02-02T13:37:01;11.00;;;4.70;;
12950;SDS011;6540;50.858;7.232;2023-02-02T13:39:39;8.87;;;4.57;;
12950;SDS011;6540;50.858;7.232;2023-02-02T13:42:13;6.47;;;4.23;;
12950;SDS011;6540;50.858;7.232;2023-02-02T13:44:57;6.60;;;4.30;;
12950;SDS011;6540;50.858;7.232;2023-02-02T13:47:38;12.50;;;4.23;;
12950;SDS011;6540;50.858;7.232;2023-02-02T13:50:11;9.00;;;4.83;;
12950;SDS011;6540;50.858;7.232;2023-02-02T13:52:55;8.07;;;4.30;;
12950;SDS011;6540;50.858;7.232;2023-02-02T13:58:20;10.07;;;5.00;;
12950;SDS011;6540;50.858;7.232;2023-02-02T14:00:59;7.90;;;4.07;;
12950;SDS011;6540;50.858;7.232;2023-02-02T14:03:34;9.37;;;4.30;;
12950;SDS011;6540;50.858;7.232;2023-02-02T14:08:44;7.40;;;4.13;;
12950;SDS011;6540;50.858;7.232;2023-02-02T14:11:21;6.07;;;4.30;;
12950;SDS011;6540;50.858;7.232;2023-02-02T14:13:57;6.90;;;4.07;;
12950;SDS011;6540;50.858;7.232;2023-02-02T14:16:55;5.47;;;3.73;;
12950;SDS011;6540;50.858;7.232;2023-02-02T14:21:58;5.87;;;3.40;;
12950;SDS011;6540;50.858;7.232;2023-02-02T14:27:02;7.43;;;3.87;;
12950;SDS011;6540;50.858;7.232;2023-02-02T14:43:08;5.77;;;3.57;;
12950;SDS011;6540;50.858;7.232;2023-02-02T14:48:42;4.33;;;2.93;;
12950;SDS011;6540;50.858;7.232;2023-02-02T14:53:53;10.20;;;3.37;;
12950;SDS011;6540;50.858;7.232;2023-02-02T14:56:19;5.47;;;3.00;;
12950;SDS011;6540;50.858;7.232;2023-02-02T14:59:01;7.50;;;3.03;;
12950;SDS011;6540;50.858;7.232;2023-02-02T15:01:32;5.00;;;2.70;;
12950;SDS011;6540;50.858;7.232;2023-02-02T15:06:31;11.57;;;2.87;;
12950;SDS011;6540;50.858;7.232;2023-02-02T15:17:32;6.37;;;3.10;;
12950;SDS011;6540;50.858;7.232;2023-02-02T15:23:13;7.43;;;3.53;;
12950;SDS011;6540;50.858;7.232;2023-02-02T15:25:53;9.93;;;3.13;;
12950;SDS011;6540;50.858;7.232;2023-02-02T15:34:18;6.80;;;2.90;;
12950;SDS011;6540;50.858;7.232;2023-02-02T15:36:50;9.27;;;2.63;;
12950;SDS011;6540;50.858;7.232;2023-02-02T15:39:25;6.00;;;2.90;;
12950;SDS011;6540;50.858;7.232;2023-02-02T15:41:54;6.67;;;3.10;;
12950;SDS011;6540;50.858;7.232;2023-02-02T15:44:42;4.63;;;2.77;;
12950;SDS011;6540;50.858;7.232;2023-02-02T15:47:11;5.63;;;3.10;;
12950;SDS011;6540;50.858;7.232;2023-02-02T15:49:41;10.07;;;3.43;;
12950;SDS011;6540;50.858;7.232;2023-02-02T15:52:14;7.60;;;3.10;;
12950;SDS011;6540;50.858;7.232;2023-02-02T15:54:53;6.73;;;2.83;;
12950;SDS011;6540;50.858;7.232;2023-02-02T15:57:43;6.80;;;3.27;;
12950;SDS011;6540;50.858;7.232;2023-02-02T16:02:50;7.03;;;2.97;;
12950;SDS011;6540;50.858;7.232;2023-02-02T16:05:37;5.97;;;2.80;;
12950;SDS011;6540;50.858;7.232;2023-02-02T16:08:14;3.77;;;2.70;;
12950;SDS011;6540;50.858;7.232;2023-02-02T16:11:00;5.80;;;2.60;;
12950;SDS011;6540;50.858;7.232;2023-02-02T16:13:30;7.13;;;2.80;;
12950;SDS011;6540;50.858;7.232;2023-02-02T16:15:58;6.07;;;2.60;;
12950;SDS011;6540;50.858;7.232;2023-02-02T16:18:25;4.87;;;2.57;;
12950;SDS011;6540;50.858;7.232;2023-02-02T16:20:52;5.73;;;2.50;;
12950;SDS011;6540;50.858;7.232;2023-02-02T16:23:23;11.00;;;3.23;;
12950;SDS011;6540;50.858;7.232;2023-02-02T16:25:53;3.80;;;2.80;;
12950;SDS011;6540;50.858;7.232;2023-02-02T16:28:22;5.90;;;3.00;;
12950;SDS011;6540;50.858;7.232;2023-02-02T16:30:48;5.83;;;2.63;;
12950;SDS011;6540;50.858;7.232;2023-02-02T16:36:23;7.40;;;2.53;;
12950;SDS011;6540;50.858;7.232;2023-02-02T16:38:54;6.70;;;2.93;;
12950;SDS011;6540;50.858;7.232;2023-02-02T16:46:54;7.23;;;2.60;;
12950;SDS011;6540;50.858;7.232;2023-02-02T16:49:21;5.67;;;3.00;;
12950;SDS011;6540;50.858;7.232;2023-02-02T16:51:57;3.13;;;2.70;;
12950;SDS011;6540;50.858;7.232;2023-02-02T16:54:32;2.93;;;2.30;;
12950;SDS011;6540;50.858;7.232;2023-02-02T16:56:58;9.10;;;2.70;;
12950;SDS011;6540;50.858;7.232;2023-02-02T16:59:30;6.83;;;2.50;;
12950;SDS011;6540;50.858;7.232;2023-02-02T17:02:32;7.20;;;2.50;;
12950;SDS011;6540;50.858;7.232;2023-02-02T17:05:00;4.63;;;2.97;;
12950;SDS011;6540;50.858;7.232;2023-02-02T17:07:50;6.70;;;3.70;;
12950;SDS011;6540;50.858;7.232;2023-02-02T17:15:54;6.97;;;2.97;;
12950;SDS011;6540;50.858;7.232;2023-02-02T17:18:19;5.67;;;2.40;;
12950;SDS011;6540;50.858;7.232;2023-02-02T17:20:44;6.77;;;3.47;;
12950;SDS011;6540;50.858;7.232;2023-02-02T17:23:14;7.43;;;2.63;;
12950;SDS011;6540;50.858;7.232;2023-02-02T17:25:42;4.67;;;2.63;;
12950;SDS011;6540;50.858;7.232;2023-02-02T17:28:12;8.20;;;2.97;;
12950;SDS011;6540;50.858;7.232;2023-02-02T17:30:42;7.17;;;2.50;;
12950;SDS011;6540;50.858;7.232;2023-02-02T17:33:12;4.63;;;2.33;;
12950;SDS011;6540;50.858;7.232;2023-02-02T17:35:39;3.20;;;2.87;;
12950;SDS011;6540;50.858;7.232;2023-02-02T17:38:05;5.50;;;2.97;;
12950;SDS011;6540;50.858;7.232;2023-02-02T17:40:31;6.43;;;3.00;;
12950;SDS011;6540;50.858;7.232;2023-02-02T17:42:57;4.63;;;2.50;;
12950;SDS011;6540;50.858;7.232;2023-02-02T17:45:27;2.60;;;2.37;;
12950;SDS011;6540;50.858;7.232;2023-02-02T17:47:55;3.07;;;2.63;;
12950;SDS011;6540;50.858;7.232;2023-02-02T17:50:20;7.00;;;2.40;;
12950;SDS011;6540;50.858;7.232;2023-02-02T17:52:46;6.47;;;3.03;;
12950;SDS011;6540;50.858;7.232;2023-02-02T17:57:44;6.30;;;3.67;;
12950;SDS011;6540;50.858;7.232;2023-02-02T18:00:10;7.77;;;3.60;;
12950;SDS011;6540;50.858;7.232;2023-02-02T18:02:35;4.60;;;3.10;;
12950;SDS011;6540;50.858;7.232;2023-02-02T18:05:02;5.10;;;2.60;;
12950;SDS011;6540;50.858;7.232;2023-02-02T18:07:28;4.97;;;3.00;;
12950;SDS011;6540;50.858;7.232;2023-02-02T18:09:54;9.20;;;3.40;;
12950;SDS011;6540;50.858;7.232;2023-02-02T18:12:19;6.60;;;3.10;;
12950;SDS011;6540;50.858;7.232;2023-02-02T18:14:44;7.03;;;2.83;;
12950;SDS011;6540;50.858;7.232;2023-02-02T18:17:10;3.53;;;2.50;;